createdAt,value
2019-02-18T00:00:56.914Z,2.83
2019-02-18T00:03:25.050Z,3.03
2019-02-18T00:05:53.104Z,2.27
2019-02-18T00:08:21.096Z,2.80
2019-02-18T00:10:49.097Z,1.30
2019-02-18T00:13:17.083Z,1.73
2019-02-18T00:15:44.984Z,4.03
2019-02-18T00:18:12.995Z,3.23
2019-02-18T00:20:40.985Z,2.93
2019-02-18T00:23:08.947Z,3.90
2019-02-18T00:25:37.020Z,2.30
2019-02-18T00:28:05.048Z,2.03
2019-02-18T00:30:33.023Z,5.20
2019-02-18T00:33:00.979Z,6.27
2019-02-18T00:35:28.891Z,1.97
2019-02-18T00:37:56.839Z,1.93
2019-02-18T00:40:24.799Z,2.13
2019-02-18T00:42:52.779Z,2.50
2019-02-18T00:45:20.712Z,5.13
2019-02-18T00:47:48.681Z,4.83
2019-02-18T00:50:16.793Z,4.30
2019-02-18T00:52:44.779Z,3.77
2019-02-18T00:55:12.769Z,2.93
2019-02-18T00:57:40.780Z,2.67
2019-02-18T01:00:09.463Z,5.30
2019-02-18T01:02:37.580Z,2.97
2019-02-18T01:05:05.545Z,3.43
2019-02-18T01:07:35.153Z,1.40
2019-02-18T01:10:03.136Z,3.77
2019-02-18T01:12:31.145Z,3.07
2019-02-18T01:14:59.050Z,3.60
2019-02-18T01:17:27.128Z,2.93
2019-02-18T01:19:55.159Z,3.67
2019-02-18T01:22:23.160Z,2.67
2019-02-18T01:24:51.201Z,2.53
2019-02-18T01:27:19.244Z,2.60
2019-02-18T01:29:47.222Z,2.43
2019-02-18T01:32:15.155Z,5.30
2019-02-18T01:34:43.111Z,1.50
2019-02-18T01:37:11.048Z,2.47
2019-02-18T01:39:38.978Z,1.70
2019-02-18T01:42:07.908Z,2.27
2019-02-18T01:44:35.914Z,1.90
2019-02-18T01:47:04.185Z,4.37
2019-02-18T01:49:32.187Z,3.53
2019-02-18T01:52:00.187Z,2.70
2019-02-18T01:54:28.100Z,2.17
2019-02-18T01:56:56.083Z,1.63
2019-02-18T01:59:24.096Z,3.47
2019-02-18T02:01:52.070Z,3.57
2019-02-18T02:04:20.000Z,2.63
2019-02-18T02:06:48.039Z,2.33
2019-02-18T02:09:17.115Z,4.40
2019-02-18T02:11:45.044Z,3.73
2019-02-18T02:14:13.019Z,1.97
2019-02-18T02:16:41.040Z,4.40
2019-02-18T02:19:09.116Z,3.33
2019-02-18T02:21:37.126Z,1.60
2019-02-18T02:24:07.631Z,2.87
2019-02-18T02:26:35.587Z,2.27
2019-02-18T02:29:03.548Z,1.90
2019-02-18T02:31:31.517Z,2.97
2019-02-18T02:33:59.473Z,6.20
2019-02-18T02:36:27.375Z,3.93
2019-02-18T02:38:55.726Z,4.80
2019-02-18T02:41:23.720Z,2.20
2019-02-18T02:43:51.763Z,3.07
2019-02-18T02:46:19.773Z,3.33
2019-02-18T02:48:47.712Z,2.90
2019-02-18T02:51:15.639Z,3.80
2019-02-18T02:53:43.576Z,4.03
2019-02-18T02:56:11.621Z,4.93
2019-02-18T02:58:39.912Z,3.67
2019-02-18T03:01:07.878Z,2.80
2019-02-18T03:03:35.892Z,4.40
2019-02-18T03:06:03.933Z,5.47
2019-02-18T03:08:31.955Z,3.67
2019-02-18T03:10:59.874Z,2.77
2019-02-18T03:13:27.867Z,5.33
2019-02-18T03:15:55.834Z,5.50
2019-02-18T03:18:23.820Z,6.20
2019-02-18T03:20:51.913Z,4.83
2019-02-18T03:23:19.929Z,6.07
2019-02-18T03:25:49.203Z,6.37
2019-02-18T03:28:34.871Z,7.73
2019-02-18T03:31:04.943Z,9.40
2019-02-18T03:33:40.774Z,7.03
2019-02-18T03:36:08.747Z,6.67
2019-02-18T03:38:36.787Z,8.20
2019-02-18T03:41:04.902Z,9.77
2019-02-18T03:43:32.892Z,7.30
2019-02-18T03:46:00.805Z,6.20
2019-02-18T03:48:28.777Z,9.13
2019-02-18T03:50:56.710Z,10.83
2019-02-18T03:53:24.692Z,8.93
2019-02-18T03:55:52.708Z,12.53
2019-02-18T03:58:20.703Z,10.03
2019-02-18T04:00:48.728Z,11.43
2019-02-18T04:03:16.767Z,9.00
2019-02-18T04:05:44.784Z,12.03
2019-02-18T04:08:12.810Z,12.63
2019-02-18T04:10:40.821Z,11.30
2019-02-18T04:13:08.743Z,9.47
2019-02-18T04:15:36.692Z,9.67
2019-02-18T04:18:04.724Z,13.70
2019-02-18T04:20:32.740Z,13.20
2019-02-18T04:23:00.772Z,7.60
2019-02-18T04:25:28.699Z,10.97
2019-02-18T04:27:56.707Z,12.97
2019-02-18T04:30:24.635Z,14.23
2019-02-18T04:32:52.623Z,13.40
2019-02-18T04:35:20.527Z,9.33
2019-02-18T04:37:48.467Z,15.63
2019-02-18T04:40:16.363Z,13.43
2019-02-18T04:42:44.296Z,13.43
2019-02-18T04:45:12.596Z,13.73
2019-02-18T04:47:40.527Z,13.43
2019-02-18T04:50:08.568Z,14.00
2019-02-18T04:52:36.527Z,17.83
2019-02-18T04:55:04.805Z,16.97
2019-02-18T04:57:32.743Z,19.07
2019-02-18T05:00:00.751Z,18.00
2019-02-18T05:02:28.747Z,15.17
2019-02-18T05:04:56.757Z,13.93
2019-02-18T05:07:24.719Z,17.07
2019-02-18T05:09:52.630Z,16.47
2019-02-18T05:12:21.474Z,20.30
2019-02-18T05:14:49.431Z,16.00
2019-02-18T05:17:20.283Z,21.77
2019-02-18T05:19:48.235Z,18.07
2019-02-18T05:22:16.300Z,17.43
2019-02-18T05:24:44.244Z,18.27
2019-02-18T05:27:12.157Z,17.87
2019-02-18T05:29:40.163Z,17.33
2019-02-18T05:32:08.156Z,17.57
2019-02-18T05:34:36.153Z,15.63
2019-02-18T05:37:04.152Z,17.60
2019-02-18T05:39:32.080Z,19.77
2019-02-18T05:42:00.143Z,16.47
2019-02-18T05:44:28.142Z,17.77
2019-02-18T05:46:56.140Z,16.97
2019-02-18T05:49:24.083Z,17.80
2019-02-18T05:51:52.064Z,22.60
2019-02-18T05:54:20.110Z,17.90
2019-02-18T05:56:48.321Z,20.20
2019-02-18T05:59:16.466Z,20.37
2019-02-18T06:01:44.509Z,21.10
2019-02-18T06:04:12.541Z,18.37
2019-02-18T06:06:40.619Z,18.63
2019-02-18T06:09:08.856Z,19.73
2019-02-18T06:11:36.929Z,19.17
2019-02-18T06:14:05.241Z,23.50
2019-02-18T06:16:33.206Z,19.90
2019-02-18T06:19:01.201Z,17.57
2019-02-18T06:21:29.203Z,19.07
2019-02-18T06:23:57.192Z,22.27
2019-02-18T06:26:25.152Z,18.03
2019-02-18T06:28:53.095Z,16.60
2019-02-18T06:31:21.114Z,15.87
2019-02-18T06:33:49.115Z,20.63
2019-02-18T06:36:17.100Z,15.73
2019-02-18T06:38:45.113Z,15.17
2019-02-18T06:41:13.107Z,14.17
2019-02-18T06:43:41.038Z,17.00
2019-02-18T06:46:30.553Z,11.33
2019-02-18T06:49:10.878Z,15.77
2019-02-18T06:51:38.947Z,11.00
2019-02-18T06:54:07.053Z,13.80
2019-02-18T06:56:52.012Z,12.53
2019-02-18T06:59:41.520Z,11.63
2019-02-18T07:02:34.460Z,14.37
2019-02-18T07:05:27.226Z,9.17
2019-02-18T07:08:13.191Z,9.90
2019-02-18T07:10:52.855Z,8.93
2019-02-18T07:13:20.863Z,10.50
2019-02-18T07:15:48.899Z,8.27
2019-02-18T07:18:16.933Z,9.27
2019-02-18T07:20:44.923Z,8.17
2019-02-18T07:23:12.972Z,6.90
2019-02-18T07:25:40.981Z,7.57
2019-02-18T07:28:09.020Z,8.63
2019-02-18T07:30:39.400Z,6.60
2019-02-18T07:33:07.648Z,7.77
2019-02-18T07:35:35.652Z,6.60
2019-02-18T07:38:03.551Z,7.37
2019-02-18T07:40:31.599Z,5.63
2019-02-18T07:42:59.527Z,5.93
2019-02-18T07:45:27.504Z,7.43
2019-02-18T07:47:57.012Z,6.57
2019-02-18T07:50:24.956Z,5.60
2019-02-18T07:52:53.055Z,7.07
2019-02-18T07:55:20.983Z,6.27
2019-02-18T07:57:49.013Z,6.57
2019-02-18T08:00:17.047Z,5.33
2019-02-18T08:02:45.071Z,6.90
2019-02-18T08:05:12.988Z,4.53
2019-02-18T08:07:40.993Z,5.17
2019-02-18T08:10:12.206Z,5.73
2019-02-18T08:12:39.081Z,7.63
2019-02-18T08:15:07.314Z,4.73
2019-02-18T08:17:35.340Z,5.30
2019-02-18T08:20:03.275Z,5.57
2019-02-18T08:22:31.292Z,4.73
2019-02-18T08:24:59.348Z,4.90
2019-02-18T08:27:27.263Z,4.87
2019-02-18T08:29:55.336Z,4.20
2019-02-18T08:32:23.344Z,4.87
2019-02-18T08:34:51.383Z,4.10
2019-02-18T08:37:19.403Z,5.67
2019-02-18T08:39:47.410Z,4.73
2019-02-18T08:42:15.422Z,4.93
2019-02-18T08:44:43.421Z,4.53
2019-02-18T08:47:11.409Z,5.47
2019-02-18T08:49:39.330Z,4.00
2019-02-18T08:52:07.321Z,3.90
2019-02-18T08:54:35.414Z,4.47
2019-02-18T08:57:03.307Z,5.77
2019-02-18T08:59:31.276Z,4.40
2019-02-18T09:01:59.267Z,5.10
2019-02-18T09:04:28.122Z,4.80
2019-02-18T09:06:56.176Z,4.33
2019-02-18T09:09:24.091Z,4.73
2019-02-18T09:11:52.063Z,4.93
2019-02-18T09:14:19.994Z,4.60
2019-02-18T09:16:47.957Z,4.73
2019-02-18T09:19:15.988Z,5.97
2019-02-18T09:21:44.008Z,6.17
2019-02-18T09:24:25.405Z,6.77
2019-02-18T09:26:53.450Z,5.80
2019-02-18T09:29:21.404Z,5.33
2019-02-18T09:31:49.362Z,6.07
2019-02-18T09:34:17.364Z,4.47
2019-02-18T09:36:45.351Z,4.50
2019-02-18T09:39:15.533Z,4.27
2019-02-18T09:41:43.511Z,4.70
2019-02-18T09:44:11.492Z,4.73
2019-02-18T09:47:01.193Z,4.40
2019-02-18T09:49:29.222Z,3.63
2019-02-18T09:51:57.212Z,3.20
2019-02-18T09:54:25.249Z,2.80
2019-02-18T09:56:53.286Z,4.90
2019-02-18T09:59:21.283Z,3.87
2019-02-18T10:01:51.308Z,3.10
2019-02-18T10:04:19.284Z,2.93
2019-02-18T10:06:47.254Z,4.00
2019-02-18T10:09:15.276Z,3.13
2019-02-18T10:11:43.242Z,4.70
2019-02-18T10:14:11.268Z,4.10
2019-02-18T10:16:39.623Z,4.07
2019-02-18T10:19:07.600Z,3.30
2019-02-18T10:21:35.531Z,3.10
2019-02-18T10:24:03.542Z,2.93
2019-02-18T10:26:31.543Z,3.53
2019-02-18T10:28:59.547Z,3.70
2019-02-18T10:31:27.548Z,2.30
2019-02-18T10:33:55.532Z,2.60
2019-02-18T10:36:23.452Z,2.33
2019-02-18T10:38:51.452Z,3.17
2019-02-18T10:41:19.432Z,2.40
2019-02-18T10:43:47.443Z,2.40
2019-02-18T10:46:15.575Z,2.20
2019-02-18T10:48:44.861Z,2.40
2019-02-18T10:51:12.888Z,2.50
2019-02-18T10:53:40.884Z,2.27
2019-02-18T10:56:09.026Z,3.33
2019-02-18T10:58:37.059Z,4.13
2019-02-18T11:01:05.232Z,2.10
2019-02-18T11:03:33.217Z,2.80
2019-02-18T11:06:01.279Z,5.17
2019-02-18T11:08:29.256Z,4.10
2019-02-18T11:10:57.305Z,3.30
2019-02-18T11:13:25.372Z,3.70
2019-02-18T11:15:53.351Z,4.70
2019-02-18T11:18:21.358Z,5.10
2019-02-18T11:20:49.396Z,5.33
2019-02-18T11:23:17.351Z,5.00
2019-02-18T11:25:45.631Z,5.57
2019-02-18T11:28:13.623Z,5.53
2019-02-18T11:30:41.674Z,6.20
2019-02-18T11:33:09.706Z,6.67
2019-02-18T11:35:37.790Z,7.17
2019-02-18T11:38:05.742Z,8.50
2019-02-18T11:40:34.067Z,9.03
2019-02-18T11:43:02.174Z,7.67
2019-02-18T11:45:30.872Z,10.87
2019-02-18T11:47:59.566Z,8.83
2019-02-18T11:50:27.564Z,11.67
2019-02-18T11:52:55.505Z,11.10
2019-02-18T11:55:23.904Z,12.90
2019-02-18T11:57:51.908Z,15.10
2019-02-18T12:00:19.946Z,11.73
2019-02-18T12:02:48.464Z,13.83
2019-02-18T12:05:16.490Z,13.33
2019-02-18T12:07:44.885Z,13.90
2019-02-18T12:10:12.988Z,15.13
2019-02-18T12:12:43.000Z,16.13
2019-02-18T12:15:11.207Z,13.93
2019-02-18T12:17:39.531Z,16.57
2019-02-18T12:20:08.868Z,15.10
2019-02-18T12:22:36.944Z,16.13
2019-02-18T12:25:04.983Z,16.03
2019-02-18T12:27:33.345Z,16.53
2019-02-18T12:30:01.725Z,15.90
2019-02-18T12:32:29.737Z,16.67
2019-02-18T12:34:57.760Z,19.23
2019-02-18T12:37:26.307Z,16.30
2019-02-18T12:39:54.343Z,17.60
2019-02-18T12:42:22.370Z,18.57
2019-02-18T12:44:52.265Z,22.07
2019-02-18T12:47:36.356Z,18.37
2019-02-18T12:50:04.513Z,18.77
2019-02-18T12:52:32.509Z,17.20
2019-02-18T12:55:00.859Z,16.30
2019-02-18T12:57:30.050Z,18.00
2019-02-18T12:59:58.848Z,22.00
2019-02-18T13:02:27.293Z,20.87
2019-02-18T13:04:55.322Z,18.70
2019-02-18T13:07:23.324Z,16.37
2019-02-18T13:09:51.292Z,18.93
2019-02-18T13:12:19.298Z,21.97
2019-02-18T13:14:48.164Z,21.73
2019-02-18T13:17:16.192Z,19.83
2019-02-18T13:19:44.309Z,18.83
2019-02-18T13:22:12.299Z,19.67
2019-02-18T13:24:40.496Z,18.93
2019-02-18T13:27:08.481Z,18.47
2019-02-18T13:29:36.515Z,19.60
2019-02-18T13:32:04.583Z,21.07
2019-02-18T13:34:32.869Z,20.70
2019-02-18T13:37:03.121Z,24.57
2019-02-18T13:39:31.199Z,22.03
2019-02-18T13:42:07.102Z,22.30
2019-02-18T13:44:28.906Z,20.77
2019-02-18T13:46:57.036Z,20.93
2019-02-18T13:49:25.080Z,20.73
2019-02-18T13:51:56.632Z,20.70
2019-02-18T13:54:23.008Z,22.13
2019-02-18T13:56:51.073Z,22.53
2019-02-18T13:59:19.076Z,20.97
2019-02-18T14:01:47.073Z,22.23
2019-02-18T14:04:15.117Z,24.57
2019-02-18T14:06:43.170Z,24.10
2019-02-18T14:09:11.540Z,23.53
2019-02-18T14:11:39.576Z,19.53
2019-02-18T14:14:07.748Z,21.00
2019-02-18T14:16:35.843Z,20.63
2019-02-18T14:19:05.432Z,21.97
2019-02-18T14:21:33.464Z,19.83
2019-02-18T14:24:02.087Z,21.57
2019-02-18T14:26:30.176Z,20.07
2019-02-18T14:28:58.282Z,22.33
2019-02-18T14:31:26.300Z,22.97
2019-02-18T14:33:54.343Z,21.47
2019-02-18T14:36:22.376Z,23.47
2019-02-18T14:38:50.450Z,24.47
2019-02-18T14:41:18.875Z,24.20
2019-02-18T14:43:46.990Z,22.77
2019-02-18T14:46:15.077Z,24.10
2019-02-18T14:48:43.136Z,27.17
2019-02-18T14:51:11.411Z,22.43
2019-02-18T14:53:39.408Z,24.33
2019-02-18T14:56:09.461Z,22.90
2019-02-18T14:58:37.596Z,22.27
2019-02-18T15:01:07.581Z,23.20
2019-02-18T15:03:35.559Z,24.60
2019-02-18T15:06:03.685Z,22.40
2019-02-18T15:08:31.687Z,23.67
2019-02-18T15:10:59.742Z,25.37
2019-02-18T15:13:28.091Z,24.20
2019-02-18T15:15:56.145Z,27.37
2019-02-18T15:18:24.179Z,23.57
2019-02-18T15:20:52.259Z,28.60
2019-02-18T15:23:20.267Z,24.47
2019-02-18T15:25:48.327Z,26.53
2019-02-18T15:28:18.954Z,25.00
2019-02-18T15:30:47.264Z,22.87
2019-02-18T15:33:16.428Z,24.40
2019-02-18T15:35:44.475Z,25.63
2019-02-18T15:38:12.480Z,26.23
2019-02-18T15:40:40.543Z,26.83
2019-02-18T15:43:08.567Z,23.03
2019-02-18T15:45:36.884Z,27.77
2019-02-18T15:48:05.476Z,26.37
2019-02-18T15:50:33.512Z,25.70
2019-02-18T15:53:01.483Z,27.00
2019-02-18T15:55:29.517Z,30.67
2019-02-18T15:57:57.523Z,30.30
2019-02-18T16:00:25.538Z,29.20
2019-02-18T16:02:53.591Z,36.40
2019-02-18T16:05:21.628Z,34.67
2019-02-18T16:07:49.758Z,33.43
2019-02-18T16:10:17.848Z,30.70
2019-02-18T16:12:50.803Z,32.50
2019-02-18T16:15:15.591Z,34.27
2019-02-18T16:17:44.206Z,35.10
2019-02-18T16:20:12.324Z,34.00
2019-02-18T16:22:44.865Z,35.50
2019-02-18T16:25:14.021Z,36.47
2019-02-18T16:27:42.153Z,35.50
2019-02-18T16:30:12.501Z,37.93
2019-02-18T16:32:41.016Z,36.57
2019-02-18T16:35:09.211Z,38.03
2019-02-18T16:37:39.174Z,38.43
2019-02-18T16:40:08.150Z,38.10
2019-02-18T16:42:36.490Z,33.97
2019-02-18T16:45:05.724Z,37.23
2019-02-18T16:47:33.725Z,36.07
2019-02-18T16:50:01.790Z,36.40
2019-02-18T16:52:32.636Z,34.47
2019-02-18T16:55:00.691Z,37.30
2019-02-18T16:57:29.802Z,35.90
2019-02-18T16:59:57.815Z,36.47
2019-02-18T17:02:26.149Z,32.90
2019-02-18T17:04:54.184Z,32.73
2019-02-18T17:07:24.394Z,30.97
2019-02-18T17:09:52.443Z,32.80
2019-02-18T17:12:34.023Z,29.90
2019-02-18T17:15:01.520Z,31.50
2019-02-18T17:17:29.535Z,30.73
2019-02-18T17:19:57.575Z,30.63
2019-02-18T17:22:25.597Z,31.27
2019-02-18T17:24:53.567Z,28.80
2019-02-18T17:27:21.611Z,31.30
2019-02-18T17:29:49.648Z,29.47
2019-02-18T17:32:18.088Z,31.27
2019-02-18T17:34:46.191Z,28.97
2019-02-18T17:37:14.215Z,34.07
2019-02-18T17:39:42.240Z,31.97
2019-02-18T17:42:10.251Z,30.63
2019-02-18T17:44:40.521Z,30.67
2019-02-18T17:47:08.200Z,28.67
2019-02-18T17:49:36.400Z,25.33
2019-02-18T17:52:04.441Z,24.77
2019-02-18T17:54:32.443Z,28.77
2019-02-18T17:57:00.552Z,26.40
2019-02-18T17:59:28.559Z,27.10
2019-02-18T18:01:56.819Z,25.37
2019-02-18T18:04:24.899Z,26.50
2019-02-18T18:06:53.251Z,25.63
2019-02-18T18:09:21.342Z,23.80
2019-02-18T18:11:49.379Z,26.13
2019-02-18T18:14:17.488Z,23.30
2019-02-18T18:16:45.589Z,25.10
2019-02-18T18:19:13.631Z,23.00
2019-02-18T18:21:41.681Z,21.87
2019-02-18T18:24:09.807Z,22.20
2019-02-18T18:26:37.844Z,21.83
2019-02-18T18:29:05.883Z,23.57
2019-02-18T18:31:33.887Z,20.10
2019-02-18T18:34:01.893Z,21.00
2019-02-18T18:36:29.926Z,18.50
2019-02-18T18:38:58.251Z,19.87
2019-02-18T18:41:26.219Z,18.20
2019-02-18T18:43:54.210Z,18.53
2019-02-18T18:46:22.248Z,18.70
2019-02-18T18:48:50.269Z,18.10
2019-02-18T18:51:18.403Z,20.60
2019-02-18T18:53:46.423Z,19.00
2019-02-18T18:56:14.485Z,22.10
2019-02-18T18:58:42.501Z,18.13
2019-02-18T19:01:10.529Z,18.50
2019-02-18T19:03:38.499Z,19.80
2019-02-18T19:06:06.536Z,20.70
2019-02-18T19:08:34.528Z,20.17
2019-02-18T19:11:02.833Z,20.80
2019-02-18T19:13:30.827Z,19.53
2019-02-18T19:15:58.855Z,19.10
2019-02-18T19:18:26.828Z,20.90
2019-02-18T19:20:54.761Z,16.93
2019-02-18T19:23:22.774Z,19.37
2019-02-18T19:25:50.790Z,20.27
2019-02-18T19:28:18.780Z,19.80
2019-02-18T19:30:46.824Z,22.73
2019-02-18T19:33:14.880Z,21.70
2019-02-18T19:35:42.916Z,22.77
2019-02-18T19:38:10.927Z,20.37
2019-02-18T19:40:39.309Z,22.83
2019-02-18T19:43:07.542Z,23.23
2019-02-18T19:45:35.560Z,19.73
2019-02-18T19:48:03.628Z,23.00
2019-02-18T19:50:31.649Z,24.33
2019-02-18T19:52:59.876Z,23.67
2019-02-18T19:55:27.931Z,22.30
2019-02-18T19:57:56.181Z,20.30
2019-02-18T20:00:24.236Z,23.03
2019-02-18T20:02:52.295Z,24.37
2019-02-18T20:05:20.353Z,22.13
2019-02-18T20:07:48.387Z,22.40
2019-02-18T20:10:16.527Z,25.73
2019-02-18T20:12:44.523Z,24.27
2019-02-18T20:15:12.932Z,27.10
2019-02-18T20:17:40.985Z,21.63
2019-02-18T20:20:17.689Z,21.57
2019-02-18T20:22:45.702Z,24.83
2019-02-18T20:25:14.014Z,23.87
2019-02-18T20:27:42.052Z,23.60
2019-02-18T20:30:10.092Z,21.70
2019-02-18T20:32:39.600Z,25.37
2019-02-18T20:35:08.108Z,21.90
2019-02-18T20:37:36.254Z,22.50
2019-02-18T20:40:04.789Z,26.87
2019-02-18T20:42:32.860Z,23.07
2019-02-18T20:45:01.049Z,23.97
2019-02-18T20:47:29.118Z,25.07
2019-02-18T20:49:57.190Z,20.97
2019-02-18T20:52:25.650Z,23.00
2019-02-18T20:54:53.691Z,26.97
2019-02-18T20:57:21.800Z,19.70
2019-02-18T20:59:50.107Z,22.50
2019-02-18T21:02:18.760Z,24.33
2019-02-18T21:04:47.033Z,24.10
2019-02-18T21:07:17.770Z,24.37
2019-02-18T21:09:46.274Z,23.60
2019-02-18T21:12:19.761Z,24.57
2019-02-18T21:14:44.187Z,24.23
2019-02-18T21:17:12.231Z,24.33
2019-02-18T21:19:40.288Z,24.20
2019-02-18T21:22:08.279Z,22.43
2019-02-18T21:24:36.311Z,25.27
2019-02-18T21:27:04.340Z,26.27
2019-02-18T21:29:32.364Z,26.17
2019-02-18T21:32:00.764Z,27.27
2019-02-18T21:34:28.811Z,28.03
2019-02-18T21:36:56.845Z,25.00
2019-02-18T21:39:24.872Z,24.07
2019-02-18T21:41:52.872Z,25.40
2019-02-18T21:44:25.252Z,26.80
2019-02-18T21:46:52.821Z,24.83
2019-02-18T21:49:20.901Z,27.60
2019-02-18T21:51:49.203Z,25.10
2019-02-18T21:54:17.304Z,26.07
2019-02-18T21:56:45.340Z,27.67
2019-02-18T21:59:14.414Z,20.47
2019-02-18T22:01:42.543Z,22.43
2019-02-18T22:04:10.706Z,23.77
2019-02-18T22:06:38.736Z,24.93
2019-02-18T22:09:06.980Z,25.77
2019-02-18T22:11:35.101Z,24.43
2019-02-18T22:14:03.223Z,24.67
2019-02-18T22:16:31.324Z,26.83
2019-02-18T22:18:59.347Z,24.47
2019-02-18T22:21:27.489Z,26.13
2019-02-18T22:23:55.576Z,23.07
2019-02-18T22:26:23.571Z,26.03
2019-02-18T22:28:51.599Z,20.97
2019-02-18T22:31:19.752Z,23.53
2019-02-18T22:34:02.202Z,26.13
2019-02-18T22:36:30.949Z,21.83
2019-02-18T22:39:01.182Z,24.53
2019-02-18T22:41:29.272Z,24.23
2019-02-18T22:43:57.372Z,23.00
2019-02-18T22:46:25.528Z,19.83
2019-02-18T22:48:57.963Z,22.83
2019-02-18T22:51:29.913Z,23.40
2019-02-18T22:54:01.418Z,25.47
2019-02-18T22:56:33.254Z,22.73
2019-02-18T22:59:01.669Z,25.17
2019-02-18T23:01:30.936Z,23.30
2019-02-18T23:03:59.498Z,20.53
2019-02-18T23:06:30.316Z,23.47
2019-02-18T23:09:10.763Z,23.03
2019-02-18T23:11:41.367Z,28.30
2019-02-18T23:14:10.396Z,25.77
2019-02-18T23:16:38.460Z,24.50
2019-02-18T23:19:06.936Z,25.03
2019-02-18T23:21:34.968Z,23.63
2019-02-18T23:24:03.043Z,22.17
2019-02-18T23:26:31.001Z,22.83
2019-02-18T23:28:59.041Z,22.87
2019-02-18T23:31:27.091Z,23.43
2019-02-18T23:33:55.101Z,23.83
2019-02-18T23:36:23.326Z,28.13
2019-02-18T23:38:51.370Z,25.87
2019-02-18T23:41:19.296Z,30.43
2019-02-18T23:43:47.326Z,22.00
2019-02-18T23:46:15.377Z,24.43
2019-02-18T23:48:43.847Z,21.50
2019-02-18T23:51:11.824Z,23.57
2019-02-18T23:53:39.796Z,23.33
2019-02-18T23:56:07.827Z,22.00
2019-02-18T23:58:35.823Z,25.93
